createdAt,value
2019-02-17T00:00:03.275Z,1020.26
2019-02-17T00:01:03.267Z,1020.25
2019-02-17T00:02:03.436Z,1020.26
2019-02-17T00:03:03.244Z,1020.25
2019-02-17T00:04:03.231Z,1020.24
2019-02-17T00:05:03.299Z,1020.26
2019-02-17T00:06:03.210Z,1020.25
2019-02-17T00:07:03.205Z,1020.28
2019-02-17T00:08:03.203Z,1020.25
2019-02-17T00:09:03.186Z,1020.23
2019-02-17T00:10:03.169Z,1020.21
2019-02-17T00:11:03.155Z,1020.23
2019-02-17T00:12:03.149Z,1020.23
2019-02-17T00:13:03.155Z,1020.20
2019-02-17T00:14:03.124Z,1020.23
2019-02-17T00:15:03.113Z,1020.24
2019-02-17T00:16:03.153Z,1020.23
2019-02-17T00:17:03.095Z,1020.20
2019-02-17T00:18:03.112Z,1020.22
2019-02-17T00:19:03.172Z,1020.24
2019-02-17T00:20:03.067Z,1020.23
2019-02-17T00:21:03.056Z,1020.23
2019-02-17T00:22:03.038Z,1020.27
2019-02-17T00:23:03.040Z,1020.22
2019-02-17T00:24:03.016Z,1020.26
2019-02-17T00:25:03.007Z,1020.27
2019-02-17T00:26:03.096Z,1020.24
2019-02-17T00:27:02.998Z,1020.20
2019-02-17T00:28:03.000Z,1020.20
2019-02-17T00:29:02.966Z,1020.18
2019-02-17T00:30:02.954Z,1020.19
2019-02-17T00:31:02.966Z,1020.22
2019-02-17T00:32:02.932Z,1020.16
2019-02-17T00:33:03.025Z,1020.21
2019-02-17T00:34:02.908Z,1020.15
2019-02-17T00:35:02.908Z,1020.11
2019-02-17T00:36:02.891Z,1020.12
2019-02-17T00:37:02.896Z,1020.12
2019-02-17T00:38:02.897Z,1020.13
2019-02-17T00:39:02.877Z,1020.13
2019-02-17T00:40:02.921Z,1020.11
2019-02-17T00:41:02.843Z,1020.12
2019-02-17T00:42:02.822Z,1020.16
2019-02-17T00:43:02.811Z,1020.11
2019-02-17T00:44:02.811Z,1020.13
2019-02-17T00:45:02.789Z,1020.14
2019-02-17T00:46:02.777Z,1020.12
2019-02-17T00:47:02.848Z,1020.14
2019-02-17T00:48:02.763Z,1020.12
2019-02-17T00:49:02.765Z,1020.15
2019-02-17T00:50:02.743Z,1020.10
2019-02-17T00:51:02.726Z,1020.10
2019-02-17T00:52:02.720Z,1020.15
2019-02-17T00:53:02.702Z,1020.16
2019-02-17T00:54:02.705Z,1020.14
2019-02-17T00:55:02.683Z,1020.13
2019-02-17T00:56:02.684Z,1020.18
2019-02-17T00:57:02.668Z,1020.17
2019-02-17T00:58:02.651Z,1020.20
2019-02-17T00:59:09.596Z,1020.23
2019-02-17T01:00:03.633Z,1020.21
2019-02-17T01:01:02.634Z,1020.16
2019-02-17T01:02:02.614Z,1020.15
2019-02-17T01:03:02.599Z,1020.15
2019-02-17T01:04:02.600Z,1020.18
2019-02-17T01:05:02.577Z,1020.16
2019-02-17T01:06:02.563Z,1020.17
2019-02-17T01:07:02.564Z,1020.16
2019-02-17T01:08:02.544Z,1020.18
2019-02-17T01:09:02.566Z,1020.17
2019-02-17T01:10:02.520Z,1020.16
2019-02-17T01:11:02.512Z,1020.16
2019-02-17T01:12:02.500Z,1020.18
2019-02-17T01:13:02.492Z,1020.17
2019-02-17T01:14:02.492Z,1020.21
2019-02-17T01:15:02.470Z,1020.20
2019-02-17T01:16:02.455Z,1020.21
2019-02-17T01:17:02.454Z,1020.18
2019-02-17T01:18:02.440Z,1020.19
2019-02-17T01:19:02.446Z,1020.23
2019-02-17T01:20:02.418Z,1020.16
2019-02-17T01:21:02.406Z,1020.23
2019-02-17T01:22:02.389Z,1020.19
2019-02-17T01:23:02.381Z,1020.19
2019-02-17T01:24:02.387Z,1020.16
2019-02-17T01:25:02.363Z,1020.19
2019-02-17T01:26:02.359Z,1020.18
2019-02-17T01:27:02.343Z,1020.19
2019-02-17T01:28:02.327Z,1020.23
2019-02-17T01:29:02.345Z,1020.24
2019-02-17T01:30:02.309Z,1020.18
2019-02-17T01:31:02.294Z,1020.20
2019-02-17T01:32:02.300Z,1020.20
2019-02-17T01:33:02.272Z,1020.20
2019-02-17T01:34:02.289Z,1020.19
2019-02-17T01:35:02.256Z,1020.21
2019-02-17T01:36:02.250Z,1020.24
2019-02-17T01:37:02.230Z,1020.24
2019-02-17T01:38:02.223Z,1020.29
2019-02-17T01:39:02.207Z,1020.26
2019-02-17T01:40:02.215Z,1020.30
2019-02-17T01:41:02.190Z,1020.28
2019-02-17T01:42:02.174Z,1020.23
2019-02-17T01:43:02.246Z,1020.23
2019-02-17T01:44:02.153Z,1020.25
2019-02-17T01:45:02.160Z,1020.26
2019-02-17T01:46:02.136Z,1020.20
2019-02-17T01:47:02.131Z,1020.20
2019-02-17T01:48:02.112Z,1020.18
2019-02-17T01:49:02.106Z,1020.24
2019-02-17T01:50:02.101Z,1020.20
2019-02-17T01:51:02.081Z,1020.23
2019-02-17T01:52:02.066Z,1020.20
2019-02-17T01:53:02.068Z,1020.21
2019-02-17T01:54:02.045Z,1020.20
2019-02-17T01:55:02.049Z,1020.22
2019-02-17T01:56:02.023Z,1020.23
2019-02-17T01:57:02.013Z,1020.23
2019-02-17T01:58:02.007Z,1020.18
2019-02-17T01:59:02.000Z,1020.20
2019-02-17T02:00:01.995Z,1020.17
2019-02-17T02:01:01.969Z,1020.16
2019-02-17T02:02:01.960Z,1020.22
2019-02-17T02:03:01.952Z,1020.21
2019-02-17T02:04:01.943Z,1020.20
2019-02-17T02:05:01.965Z,1020.15
2019-02-17T02:06:01.913Z,1020.13
2019-02-17T02:07:01.912Z,1020.10
2019-02-17T02:08:01.892Z,1020.03
2019-02-17T02:09:01.889Z,1020.05
2019-02-17T02:10:01.890Z,1020.05
2019-02-17T02:11:01.861Z,1020.07
2019-02-17T02:12:01.869Z,1020.03
2019-02-17T02:13:01.836Z,1020.05
2019-02-17T02:14:01.833Z,1020.06
2019-02-17T02:15:01.829Z,1020.07
2019-02-17T02:16:01.820Z,1020.05
2019-02-17T02:17:01.800Z,1020.10
2019-02-17T02:18:01.832Z,1020.14
2019-02-17T02:19:01.788Z,1020.10
2019-02-17T02:20:01.784Z,1020.08
2019-02-17T02:21:01.762Z,1020.06
2019-02-17T02:22:01.743Z,1020.06
2019-02-17T02:23:01.732Z,1020.10
2019-02-17T02:24:01.724Z,1020.07
2019-02-17T02:25:01.723Z,1020.09
2019-02-17T02:26:01.700Z,1020.12
2019-02-17T02:27:01.696Z,1020.08
2019-02-17T02:28:01.678Z,1020.07
2019-02-17T02:29:01.666Z,1020.10
2019-02-17T02:30:01.751Z,1020.09
2019-02-17T02:31:01.677Z,1020.12
2019-02-17T02:32:01.671Z,1020.10
2019-02-17T02:33:01.641Z,1020.11
2019-02-17T02:34:01.612Z,1020.13
2019-02-17T02:35:01.623Z,1020.14
2019-02-17T02:36:01.603Z,1020.13
2019-02-17T02:37:01.586Z,1020.14
2019-02-17T02:38:01.570Z,1020.12
2019-02-17T02:39:01.573Z,1020.10
2019-02-17T02:40:01.555Z,1020.09
2019-02-17T02:41:01.554Z,1020.11
2019-02-17T02:42:01.535Z,1020.13
2019-02-17T02:43:01.538Z,1020.11
2019-02-17T02:44:01.504Z,1020.14
2019-02-17T02:45:01.521Z,1020.10
2019-02-17T02:46:01.494Z,1020.09
2019-02-17T02:47:01.478Z,1020.13
2019-02-17T02:48:01.470Z,1020.12
2019-02-17T02:49:01.469Z,1020.11
2019-02-17T02:50:01.544Z,1020.09
2019-02-17T02:51:01.447Z,1020.15
2019-02-17T02:52:01.420Z,1020.15
2019-02-17T02:53:01.416Z,1020.13
2019-02-17T02:54:01.408Z,1020.12
2019-02-17T02:55:01.389Z,1020.14
2019-02-17T02:56:01.392Z,1020.16
2019-02-17T02:57:01.371Z,1020.18
2019-02-17T02:58:01.361Z,1020.20
2019-02-17T02:59:01.358Z,1020.21
2019-02-17T03:00:01.347Z,1020.21
2019-02-17T03:01:01.347Z,1020.20
2019-02-17T03:02:01.318Z,1020.14
2019-02-17T03:03:01.302Z,1020.18
2019-02-17T03:04:01.293Z,1020.20
2019-02-17T03:05:01.280Z,1020.20
2019-02-17T03:06:01.544Z,1020.20
2019-02-17T03:07:01.269Z,1020.20
2019-02-17T03:08:01.251Z,1020.17
2019-02-17T03:09:01.990Z,1020.16
2019-02-17T03:10:01.232Z,1020.15
2019-02-17T03:11:01.259Z,1020.27
2019-02-17T03:12:01.224Z,1020.21
2019-02-17T03:13:01.254Z,1020.32
2019-02-17T03:14:01.257Z,1020.25
2019-02-17T03:15:01.174Z,1020.33
2019-02-17T03:16:01.200Z,1020.26
2019-02-17T03:17:01.987Z,1020.31
2019-02-17T03:18:01.144Z,1020.26
2019-02-17T03:19:01.146Z,1020.30
2019-02-17T03:20:01.121Z,1020.28
2019-02-17T03:21:01.144Z,1020.28
2019-02-17T03:22:01.114Z,1020.31
2019-02-17T03:23:01.092Z,1020.35
2019-02-17T03:24:01.081Z,1020.35
2019-02-17T03:25:01.073Z,1020.34
2019-02-17T03:26:01.073Z,1020.31
2019-02-17T03:27:01.048Z,1020.35
2019-02-17T03:28:01.036Z,1020.38
2019-02-17T03:29:01.044Z,1020.41
2019-02-17T03:30:04.822Z,1020.40
2019-02-17T03:31:01.066Z,1020.43
2019-02-17T03:32:01.004Z,1020.38
2019-02-17T03:33:00.987Z,1020.40
2019-02-17T03:34:00.975Z,1020.42
2019-02-17T03:35:00.960Z,1020.41
2019-02-17T03:36:00.960Z,1020.43
2019-02-17T03:37:00.943Z,1020.41
2019-02-17T03:38:00.931Z,1020.38
2019-02-17T03:39:00.921Z,1020.35
2019-02-17T03:40:00.998Z,1020.37
2019-02-17T03:41:01.245Z,1020.38
2019-02-17T03:42:00.892Z,1020.34
2019-02-17T03:43:00.878Z,1020.33
2019-02-17T03:44:00.888Z,1020.38
2019-02-17T03:45:00.856Z,1020.38
2019-02-17T03:46:00.855Z,1020.36
2019-02-17T03:47:00.850Z,1020.34
2019-02-17T03:48:00.898Z,1020.34
2019-02-17T03:49:00.813Z,1020.35
2019-02-17T03:50:00.808Z,1020.33
2019-02-17T03:51:00.795Z,1020.35
2019-02-17T03:52:00.798Z,1020.35
2019-02-17T03:53:00.775Z,1020.40
2019-02-17T03:54:00.773Z,1020.39
2019-02-17T03:55:00.745Z,1020.40
2019-02-17T03:56:00.767Z,1020.43
2019-02-17T03:57:00.737Z,1020.45
2019-02-17T03:58:00.718Z,1020.47
2019-02-17T03:59:00.705Z,1020.50
2019-02-17T04:00:00.698Z,1020.51
2019-02-17T04:01:00.683Z,1020.50
2019-02-17T04:02:00.701Z,1020.49
2019-02-17T04:03:00.666Z,1020.49
2019-02-17T04:04:00.658Z,1020.47
2019-02-17T04:05:00.643Z,1020.45
2019-02-17T04:06:00.631Z,1020.49
2019-02-17T04:07:00.635Z,1020.48
2019-02-17T04:08:00.611Z,1020.49
2019-02-17T04:09:00.602Z,1020.49
2019-02-17T04:10:00.606Z,1020.47
2019-02-17T04:11:00.583Z,1020.48
2019-02-17T04:12:00.576Z,1020.45
2019-02-17T04:13:00.558Z,1020.48
2019-02-17T04:14:00.545Z,1020.45
2019-02-17T04:15:00.534Z,1020.46
2019-02-17T04:16:00.523Z,1020.44
2019-02-17T04:17:00.574Z,1020.39
2019-02-17T04:18:00.505Z,1020.40
2019-02-17T04:19:00.495Z,1020.42
2019-02-17T04:20:00.479Z,1020.41
2019-02-17T04:21:00.472Z,1020.47
2019-02-17T04:22:00.478Z,1020.41
2019-02-17T04:23:00.448Z,1020.43
2019-02-17T04:24:00.491Z,1020.42
2019-02-17T04:25:00.430Z,1020.40
2019-02-17T04:26:00.429Z,1020.38
2019-02-17T04:27:00.420Z,1020.40
2019-02-17T04:28:00.421Z,1020.42
2019-02-17T04:29:00.401Z,1020.41
2019-02-17T04:30:00.532Z,1020.37
2019-02-17T04:31:00.364Z,1020.41
2019-02-17T04:32:00.377Z,1020.40
2019-02-17T04:33:00.347Z,1020.37
2019-02-17T04:34:00.327Z,1020.39
2019-02-17T04:35:00.317Z,1020.44
2019-02-17T04:36:00.308Z,1020.41
2019-02-17T04:37:00.390Z,1020.39
2019-02-17T04:38:00.322Z,1020.42
2019-02-17T04:39:00.285Z,1020.43
2019-02-17T04:40:00.422Z,1020.42
2019-02-17T04:41:00.260Z,1020.41
2019-02-17T04:42:00.255Z,1020.46
2019-02-17T04:43:00.299Z,1020.46
2019-02-17T04:44:00.230Z,1020.40
2019-02-17T04:45:00.350Z,1020.36
2019-02-17T04:46:00.209Z,1020.38
2019-02-17T04:47:00.213Z,1020.36
2019-02-17T04:48:00.180Z,1020.37
2019-02-17T04:49:00.167Z,1020.40
2019-02-17T04:50:00.236Z,1020.31
2019-02-17T04:51:00.211Z,1020.36
2019-02-17T04:52:00.146Z,1020.32
2019-02-17T04:53:00.139Z,1020.31
2019-02-17T04:54:00.113Z,1020.28
2019-02-17T04:55:00.286Z,1020.31
2019-02-17T04:56:00.105Z,1020.29
2019-02-17T04:57:00.117Z,1020.26
2019-02-17T04:58:00.144Z,1020.29
2019-02-17T04:59:00.064Z,1020.21
2019-02-17T05:00:00.053Z,1020.23
2019-02-17T05:01:00.043Z,1020.19
2019-02-17T05:02:00.036Z,1020.23
2019-02-17T05:03:00.031Z,1020.21
2019-02-17T05:04:00.010Z,1020.26
2019-02-17T05:05:00.006Z,1020.20
2019-02-17T05:06:00.007Z,1020.25
2019-02-17T05:06:59.981Z,1020.25
2019-02-17T05:07:59.985Z,1020.24
2019-02-17T05:08:59.958Z,1020.23
2019-02-17T05:09:59.951Z,1020.24
2019-02-17T05:10:59.934Z,1020.25
2019-02-17T05:11:59.982Z,1020.21
2019-02-17T05:12:59.938Z,1020.26
2019-02-17T05:13:59.912Z,1020.23
2019-02-17T05:14:59.891Z,1020.23
2019-02-17T05:15:59.886Z,1020.23
2019-02-17T05:16:59.891Z,1020.26
2019-02-17T05:17:59.873Z,1020.24
2019-02-17T05:18:59.858Z,1020.26
2019-02-17T05:19:59.852Z,1020.23
2019-02-17T05:20:59.825Z,1020.29
2019-02-17T05:21:59.817Z,1020.28
2019-02-17T05:22:59.819Z,1020.30
2019-02-17T05:23:59.797Z,1020.29
2019-02-17T05:24:59.797Z,1020.29
2019-02-17T05:25:59.837Z,1020.33
2019-02-17T05:26:59.772Z,1020.36
2019-02-17T05:27:59.769Z,1020.36
2019-02-17T05:28:59.742Z,1020.34
2019-02-17T05:29:59.732Z,1020.37
2019-02-17T05:30:59.720Z,1020.36
2019-02-17T05:31:59.710Z,1020.36
2019-02-17T05:32:59.714Z,1020.38
2019-02-17T05:33:59.693Z,1020.37
2019-02-17T05:34:59.693Z,1020.39
2019-02-17T05:35:59.666Z,1020.43
2019-02-17T05:36:59.660Z,1020.43
2019-02-17T05:37:59.655Z,1020.42
2019-02-17T05:38:59.635Z,1020.42
2019-02-17T05:39:59.623Z,1020.42
2019-02-17T05:40:59.615Z,1020.40
2019-02-17T05:41:59.666Z,1020.39
2019-02-17T05:42:59.602Z,1020.37
2019-02-17T05:43:59.614Z,1020.38
2019-02-17T05:44:59.569Z,1020.40
2019-02-17T05:45:59.558Z,1020.39
2019-02-17T05:46:59.550Z,1020.40
2019-02-17T05:47:59.552Z,1020.41
2019-02-17T05:48:59.529Z,1020.36
2019-02-17T05:49:59.528Z,1020.35
2019-02-17T05:50:59.502Z,1020.33
2019-02-17T05:51:59.496Z,1020.37
2019-02-17T05:52:59.498Z,1020.39
2019-02-17T05:53:59.477Z,1020.38
2019-02-17T05:54:59.461Z,1020.37
2019-02-17T05:55:59.453Z,1020.41
2019-02-17T05:56:59.442Z,1020.41
2019-02-17T05:57:59.443Z,1020.37
2019-02-17T05:58:59.426Z,1020.40
2019-02-17T05:59:59.415Z,1020.40
2019-02-17T06:01:03.887Z,1020.45
2019-02-17T06:02:00.392Z,1020.44
2019-02-17T06:02:59.390Z,1020.45
2019-02-17T06:03:59.374Z,1020.51
2019-02-17T06:04:59.355Z,1020.50
2019-02-17T06:05:59.362Z,1020.52
2019-02-17T06:06:59.352Z,1020.52
2019-02-17T06:07:59.348Z,1020.51
2019-02-17T06:08:59.317Z,1020.49
2019-02-17T06:09:59.306Z,1020.53
2019-02-17T06:10:59.294Z,1020.50
2019-02-17T06:11:59.287Z,1020.56
2019-02-17T06:12:59.279Z,1020.53
2019-02-17T06:13:59.259Z,1020.50
2019-02-17T06:14:59.250Z,1020.52
2019-02-17T06:15:59.237Z,1020.52
2019-02-17T06:16:59.233Z,1020.49
2019-02-17T06:17:59.257Z,1020.51
2019-02-17T06:18:59.206Z,1020.52
2019-02-17T06:19:59.196Z,1020.52
2019-02-17T06:20:59.197Z,1020.54
2019-02-17T06:21:59.181Z,1020.52
2019-02-17T06:22:59.164Z,1020.54
2019-02-17T06:23:59.162Z,1020.59
2019-02-17T06:24:59.145Z,1020.59
2019-02-17T06:25:59.131Z,1020.59
2019-02-17T06:26:59.118Z,1020.57
2019-02-17T06:27:59.109Z,1020.61
2019-02-17T06:29:00.009Z,1020.64
2019-02-17T06:29:59.088Z,1020.65
2019-02-17T06:30:59.076Z,1020.67
2019-02-17T06:31:59.081Z,1020.70
2019-02-17T06:32:59.059Z,1020.68
2019-02-17T06:33:59.060Z,1020.67
2019-02-17T06:34:59.038Z,1020.73
2019-02-17T06:35:59.028Z,1020.71
2019-02-17T06:36:59.017Z,1020.73
2019-02-17T06:37:59.005Z,1020.74
2019-02-17T06:38:59.009Z,1020.75
2019-02-17T06:39:58.983Z,1020.76
2019-02-17T06:40:58.976Z,1020.82
2019-02-17T06:41:58.959Z,1020.82
2019-02-17T06:42:58.948Z,1020.78
2019-02-17T06:43:58.950Z,1020.79
2019-02-17T06:44:59.560Z,1020.86
2019-02-17T06:45:58.916Z,1020.85
2019-02-17T06:46:58.936Z,1020.83
2019-02-17T06:47:58.894Z,1020.84
2019-02-17T06:48:58.899Z,1020.82
2019-02-17T06:49:58.877Z,1020.78
2019-02-17T06:50:58.884Z,1020.76
2019-02-17T06:51:58.854Z,1020.77
2019-02-17T06:52:58.845Z,1020.71
2019-02-17T06:53:58.864Z,1020.79
2019-02-17T06:54:58.823Z,1020.80
2019-02-17T06:55:58.808Z,1020.75
2019-02-17T06:56:58.814Z,1020.76
2019-02-17T06:57:58.793Z,1020.79
2019-02-17T06:58:58.791Z,1020.78
2019-02-17T06:59:58.767Z,1020.76
2019-02-17T07:00:58.753Z,1020.76
2019-02-17T07:01:58.742Z,1020.73
2019-02-17T07:02:58.731Z,1020.73
2019-02-17T07:03:58.746Z,1020.72
2019-02-17T07:04:58.718Z,1020.75
2019-02-17T07:05:58.708Z,1020.76
2019-02-17T07:06:58.708Z,1020.76
2019-02-17T07:07:58.688Z,1020.78
2019-02-17T07:08:58.685Z,1020.83
2019-02-17T07:09:58.704Z,1020.83
2019-02-17T07:10:58.647Z,1020.82
2019-02-17T07:11:58.640Z,1020.80
2019-02-17T07:12:58.625Z,1020.77
2019-02-17T07:13:58.631Z,1020.71
2019-02-17T07:14:58.606Z,1020.76
2019-02-17T07:15:58.592Z,1020.78
2019-02-17T07:16:58.581Z,1020.77
2019-02-17T07:17:59.189Z,1020.73
2019-02-17T07:18:58.571Z,1020.72
2019-02-17T07:19:58.554Z,1020.73
2019-02-17T07:20:58.539Z,1020.76
2019-02-17T07:21:58.532Z,1020.80
2019-02-17T07:22:58.517Z,1020.75
2019-02-17T07:23:58.521Z,1020.84
2019-02-17T07:24:58.496Z,1020.80
2019-02-17T07:25:58.492Z,1020.77
2019-02-17T07:26:58.473Z,1020.82
2019-02-17T07:27:58.467Z,1020.81
2019-02-17T07:28:58.465Z,1020.83
2019-02-17T07:29:58.443Z,1020.80
2019-02-17T07:30:58.433Z,1020.78
2019-02-17T07:31:58.419Z,1020.80
2019-02-17T07:32:58.413Z,1020.77
2019-02-17T07:33:58.589Z,1020.80
2019-02-17T07:34:59.799Z,1020.78
2019-02-17T07:35:58.380Z,1020.85
2019-02-17T07:36:58.368Z,1020.82
2019-02-17T07:37:58.360Z,1020.87
2019-02-17T07:38:58.344Z,1020.84
2019-02-17T07:39:58.354Z,1020.85
2019-02-17T07:40:58.324Z,1020.89
2019-02-17T07:41:58.317Z,1020.85
2019-02-17T07:42:58.302Z,1020.89
2019-02-17T07:43:58.291Z,1020.89
2019-02-17T07:44:58.297Z,1020.93
2019-02-17T07:45:58.269Z,1020.90
2019-02-17T07:46:58.258Z,1020.94
2019-02-17T07:47:58.251Z,1020.94
2019-02-17T07:48:58.240Z,1020.94
2019-02-17T07:49:58.241Z,1020.94
2019-02-17T07:50:58.215Z,1020.94
2019-02-17T07:51:58.203Z,1020.95
2019-02-17T07:52:58.194Z,1020.90
2019-02-17T07:53:58.182Z,1020.86
2019-02-17T07:54:58.189Z,1020.90
2019-02-17T07:55:58.162Z,1020.88
2019-02-17T07:56:58.155Z,1020.89
2019-02-17T07:57:58.138Z,1020.88
2019-02-17T07:58:58.135Z,1020.89
2019-02-17T07:59:58.135Z,1020.84
2019-02-17T08:00:58.109Z,1020.88
2019-02-17T08:01:58.102Z,1020.87
2019-02-17T08:02:58.085Z,1020.87
2019-02-17T08:03:58.079Z,1020.91
2019-02-17T08:04:58.075Z,1020.87
2019-02-17T08:05:58.051Z,1020.86
2019-02-17T08:06:58.048Z,1020.88
2019-02-17T08:07:58.029Z,1020.88
2019-02-17T08:08:58.023Z,1020.87
2019-02-17T08:09:58.039Z,1020.94
2019-02-17T08:11:04.023Z,1020.92
2019-02-17T08:11:58.984Z,1020.94
2019-02-17T08:12:57.973Z,1020.96
2019-02-17T08:13:57.962Z,1020.95
2019-02-17T08:14:58.141Z,1020.94
2019-02-17T08:15:57.947Z,1020.94
2019-02-17T08:16:57.943Z,1020.96
2019-02-17T08:17:57.918Z,1020.91
2019-02-17T08:18:57.919Z,1020.87
2019-02-17T08:19:57.912Z,1020.92
2019-02-17T08:20:57.898Z,1020.91
2019-02-17T08:21:57.879Z,1020.90
2019-02-17T08:22:57.881Z,1020.92
2019-02-17T08:23:57.857Z,1020.96
2019-02-17T08:24:57.856Z,1020.91
2019-02-17T08:25:57.867Z,1020.93
2019-02-17T08:26:57.823Z,1020.96
2019-02-17T08:27:57.846Z,1020.95
2019-02-17T08:28:57.801Z,1021.02
2019-02-17T08:29:57.803Z,1021.02
2019-02-17T08:30:57.781Z,1021.04
2019-02-17T08:31:57.774Z,1021.06
2019-02-17T08:32:57.756Z,1021.04
2019-02-17T08:33:57.748Z,1021.08
2019-02-17T08:34:58.093Z,1021.02
2019-02-17T08:35:57.728Z,1021.08
2019-02-17T08:36:57.712Z,1021.07
2019-02-17T08:37:57.710Z,1021.14
2019-02-17T08:38:57.697Z,1021.14
2019-02-17T08:39:57.707Z,1021.14
2019-02-17T08:40:57.679Z,1021.12
2019-02-17T08:41:57.668Z,1021.08
2019-02-17T08:42:57.648Z,1021.03
2019-02-17T08:43:57.640Z,1021.04
2019-02-17T08:44:57.639Z,1021.07
2019-02-17T08:45:57.634Z,1021.01
2019-02-17T08:46:57.608Z,1020.97
2019-02-17T08:47:57.601Z,1020.98
2019-02-17T08:48:57.585Z,1020.99
2019-02-17T08:49:57.590Z,1020.95
2019-02-17T08:50:57.569Z,1020.93
2019-02-17T08:51:58.072Z,1020.95
2019-02-17T08:52:57.547Z,1020.97
2019-02-17T08:53:57.532Z,1020.93
2019-02-17T08:54:57.532Z,1020.91
2019-02-17T08:55:57.512Z,1020.89
2019-02-17T08:56:57.506Z,1020.93
2019-02-17T08:57:57.499Z,1020.91
2019-02-17T08:58:57.542Z,1020.99
2019-02-17T08:59:57.480Z,1020.95
2019-02-17T09:00:57.454Z,1020.94
2019-02-17T09:02:05.670Z,1020.96
2019-02-17T09:02:58.444Z,1020.95
2019-02-17T09:03:57.422Z,1020.92
2019-02-17T09:04:57.440Z,1020.89
2019-02-17T09:05:57.401Z,1020.88
2019-02-17T09:06:57.394Z,1020.89
2019-02-17T09:07:57.380Z,1020.92
2019-02-17T09:08:57.440Z,1020.93
2019-02-17T09:09:57.391Z,1020.91
2019-02-17T09:10:57.352Z,1020.93
2019-02-17T09:11:57.340Z,1020.95
2019-02-17T09:12:57.324Z,1020.94
2019-02-17T09:13:57.314Z,1020.90
2019-02-17T09:14:57.305Z,1020.93
2019-02-17T09:15:57.387Z,1020.93
2019-02-17T09:16:57.295Z,1020.92
2019-02-17T09:17:57.268Z,1020.91
2019-02-17T09:18:57.265Z,1020.93
2019-02-17T09:19:57.247Z,1020.95
2019-02-17T09:20:57.255Z,1020.95
2019-02-17T09:21:57.228Z,1020.86
2019-02-17T09:22:57.288Z,1020.92
2019-02-17T09:23:57.205Z,1020.87
2019-02-17T09:24:57.194Z,1020.87
2019-02-17T09:25:57.199Z,1020.84
2019-02-17T09:26:57.171Z,1020.86
2019-02-17T09:27:57.227Z,1020.85
2019-02-17T09:28:57.187Z,1020.82
2019-02-17T09:29:57.245Z,1020.74
2019-02-17T09:30:57.149Z,1020.80
2019-02-17T09:31:59.298Z,1020.75
2019-02-17T09:32:57.154Z,1020.71
2019-02-17T09:33:57.121Z,1020.73
2019-02-17T09:34:57.085Z,1020.70
2019-02-17T09:35:57.084Z,1020.69
2019-02-17T09:36:57.138Z,1020.68
2019-02-17T09:37:57.054Z,1020.66
2019-02-17T09:38:57.039Z,1020.65
2019-02-17T09:39:57.029Z,1020.64
2019-02-17T09:40:57.035Z,1020.69
2019-02-17T09:41:57.008Z,1020.67
2019-02-17T09:42:57.015Z,1020.67
2019-02-17T09:43:57.060Z,1020.68
2019-02-17T09:44:56.981Z,1020.69
2019-02-17T09:45:56.988Z,1020.69
2019-02-17T09:46:56.959Z,1020.68
2019-02-17T09:47:56.950Z,1020.70
2019-02-17T09:48:56.937Z,1020.63
2019-02-17T09:49:56.928Z,1020.64
2019-02-17T09:50:56.921Z,1020.72
2019-02-17T09:51:56.971Z,1020.67
2019-02-17T09:52:56.894Z,1020.70
2019-02-17T09:53:56.876Z,1020.68
2019-02-17T09:54:56.866Z,1020.65
2019-02-17T09:55:56.876Z,1020.63
2019-02-17T09:56:56.872Z,1020.61
2019-02-17T09:57:56.834Z,1020.52
2019-02-17T09:58:56.824Z,1020.57
2019-02-17T09:59:56.815Z,1020.47
2019-02-17T10:00:56.817Z,1020.55
2019-02-17T10:01:56.790Z,1020.55
2019-02-17T10:02:56.780Z,1020.54
2019-02-17T10:03:56.776Z,1020.52
2019-02-17T10:04:56.774Z,1020.56
2019-02-17T10:05:56.783Z,1020.61
2019-02-17T10:06:56.750Z,1020.62
2019-02-17T10:07:56.726Z,1020.62
2019-02-17T10:08:56.716Z,1020.63
2019-02-17T10:09:56.710Z,1020.63
2019-02-17T10:10:56.700Z,1020.66
2019-02-17T10:11:56.696Z,1020.60
2019-02-17T10:12:56.673Z,1020.63
2019-02-17T10:13:56.662Z,1020.58
2019-02-17T10:14:56.654Z,1020.62
2019-02-17T10:15:56.646Z,1020.67
2019-02-17T10:16:56.678Z,1020.69
2019-02-17T10:17:56.633Z,1020.65
2019-02-17T10:18:56.614Z,1020.68
2019-02-17T10:19:56.617Z,1020.62
2019-02-17T10:20:56.583Z,1020.57
2019-02-17T10:21:56.588Z,1020.62
2019-02-17T10:22:56.563Z,1020.57
2019-02-17T10:23:56.608Z,1020.56
2019-02-17T10:24:56.550Z,1020.56
2019-02-17T10:25:56.731Z,1020.56
2019-02-17T10:26:56.537Z,1020.51
2019-02-17T10:27:56.519Z,1020.55
2019-02-17T10:28:56.506Z,1020.56
2019-02-17T10:29:56.487Z,1020.51
2019-02-17T10:30:56.486Z,1020.53
2019-02-17T10:31:56.571Z,1020.55
2019-02-17T10:32:56.456Z,1020.52
2019-02-17T10:33:56.446Z,1020.53
2019-02-17T10:34:56.434Z,1020.50
2019-02-17T10:35:56.422Z,1020.50
2019-02-17T10:36:56.426Z,1020.45
2019-02-17T10:37:56.462Z,1020.45
2019-02-17T10:38:58.405Z,1020.50
2019-02-17T10:39:56.464Z,1020.45
2019-02-17T10:40:56.369Z,1020.40
2019-02-17T10:41:56.373Z,1020.43
2019-02-17T10:42:56.349Z,1020.41
2019-02-17T10:43:56.337Z,1020.44
2019-02-17T10:44:56.330Z,1020.40
2019-02-17T10:45:56.317Z,1020.41
2019-02-17T10:46:56.321Z,1020.41
2019-02-17T10:47:56.298Z,1020.35
2019-02-17T10:48:56.280Z,1020.33
2019-02-17T10:49:56.322Z,1020.32
2019-02-17T10:50:56.259Z,1020.30
2019-02-17T10:51:56.268Z,1020.28
2019-02-17T10:52:56.237Z,1020.26
2019-02-17T10:53:56.349Z,1020.28
2019-02-17T10:54:56.213Z,1020.25
2019-02-17T10:55:56.236Z,1020.23
2019-02-17T10:56:56.213Z,1020.23
2019-02-17T10:57:56.186Z,1020.18
2019-02-17T10:58:56.170Z,1020.17
2019-02-17T10:59:56.158Z,1020.17
2019-02-17T11:00:56.150Z,1020.15
2019-02-17T11:01:56.151Z,1020.16
2019-02-17T11:02:56.126Z,1020.13
2019-02-17T11:03:56.114Z,1020.13
2019-02-17T11:04:56.116Z,1020.05
2019-02-17T11:05:56.098Z,1020.08
2019-02-17T11:06:56.095Z,1020.05
2019-02-17T11:07:56.089Z,1020.06
2019-02-17T11:08:56.061Z,1020.05
2019-02-17T11:09:56.049Z,1020.03
2019-02-17T11:10:56.049Z,1020.04
2019-02-17T11:11:56.052Z,1020.03
2019-02-17T11:12:56.027Z,1020.04
2019-02-17T11:13:56.012Z,1020.06
2019-02-17T11:14:55.998Z,1020.02
2019-02-17T11:15:55.993Z,1019.99
2019-02-17T11:16:56.020Z,1019.97
2019-02-17T11:17:55.965Z,1019.95
2019-02-17T11:18:55.954Z,1019.95
2019-02-17T11:19:55.942Z,1019.89
2019-02-17T11:20:55.934Z,1019.91
2019-02-17T11:21:55.936Z,1019.83
2019-02-17T11:22:55.910Z,1019.86
2019-02-17T11:23:55.901Z,1019.78
2019-02-17T11:24:57.711Z,1019.82
2019-02-17T11:25:55.874Z,1019.79
2019-02-17T11:26:55.917Z,1019.77
2019-02-17T11:27:55.858Z,1019.78
2019-02-17T11:28:55.887Z,1019.77
2019-02-17T11:29:55.835Z,1019.71
2019-02-17T11:30:55.820Z,1019.75
2019-02-17T11:31:55.820Z,1019.74
2019-02-17T11:32:58.218Z,1019.73
2019-02-17T11:33:55.796Z,1019.70
2019-02-17T11:34:55.778Z,1019.67
2019-02-17T11:35:55.766Z,1019.69
2019-02-17T11:36:55.760Z,1019.69
2019-02-17T11:37:55.769Z,1019.65
2019-02-17T11:38:55.753Z,1019.64
2019-02-17T11:39:55.743Z,1019.66
2019-02-17T11:40:55.717Z,1019.66
2019-02-17T11:41:55.702Z,1019.63
2019-02-17T11:42:55.707Z,1019.70
2019-02-17T11:43:55.686Z,1019.68
2019-02-17T11:44:55.671Z,1019.64
2019-02-17T11:45:55.665Z,1019.61
2019-02-17T11:46:55.661Z,1019.64
2019-02-17T11:47:55.677Z,1019.66
2019-02-17T11:48:55.645Z,1019.67
2019-02-17T11:49:55.627Z,1019.68
2019-02-17T11:50:55.614Z,1019.71
2019-02-17T11:51:55.596Z,1019.69
2019-02-17T11:52:55.605Z,1019.71
2019-02-17T11:53:55.573Z,1019.68
2019-02-17T11:54:55.687Z,1019.69
2019-02-17T11:55:55.567Z,1019.67
2019-02-17T11:56:55.552Z,1019.70
2019-02-17T11:57:55.550Z,1019.65
2019-02-17T11:58:55.535Z,1019.65
2019-02-17T11:59:55.514Z,1019.66
2019-02-17T12:00:55.500Z,1019.61
2019-02-17T12:01:55.494Z,1019.57
2019-02-17T12:02:55.523Z,1019.56
2019-02-17T12:03:55.477Z,1019.49
2019-02-17T12:04:55.462Z,1019.53